createdAt,value
2023-03-17T00:01:56.112Z,29.80
2023-03-17T00:04:25.222Z,29.80
2023-03-17T00:06:53.200Z,29.80
2023-03-17T00:09:21.345Z,29.80
2023-03-17T00:11:49.169Z,29.80
2023-03-17T00:14:16.883Z,29.80
2023-03-17T00:16:51.586Z,29.80
2023-03-17T00:19:26.670Z,29.90
2023-03-17T00:21:55.117Z,29.80
2023-03-17T00:24:22.504Z,29.90
2023-03-17T00:26:49.596Z,29.90
2023-03-17T00:29:16.692Z,29.90
2023-03-17T00:31:45.773Z,29.90
2023-03-17T00:34:18.586Z,29.90
2023-03-17T00:36:50.836Z,29.90
2023-03-17T00:39:18.824Z,29.90
2023-03-17T00:44:13.384Z,29.90
2023-03-17T00:46:41.854Z,29.90
2023-03-17T00:49:20.608Z,29.90
2023-03-17T00:51:48.156Z,29.90
2023-03-17T00:54:15.994Z,29.90
2023-03-17T00:56:44.370Z,29.90
2023-03-17T00:59:29.886Z,29.90
2023-03-17T01:01:57.573Z,29.90
2023-03-17T01:04:24.966Z,29.80
2023-03-17T01:06:53.113Z,29.90
2023-03-17T01:09:24.248Z,29.80
2023-03-17T01:11:51.345Z,29.90
2023-03-17T01:14:18.525Z,29.80
2023-03-17T01:16:45.661Z,29.80
2023-03-17T01:19:13.830Z,29.80
2023-03-17T01:21:41.771Z,29.80
2023-03-17T01:24:09.760Z,29.80
2023-03-17T01:26:37.745Z,29.80
2023-03-17T01:29:06.530Z,29.80
2023-03-17T01:31:33.943Z,29.80
2023-03-17T01:34:01.243Z,29.80
2023-03-17T01:36:28.294Z,29.80
2023-03-17T01:38:55.393Z,29.80
2023-03-17T01:41:22.975Z,29.80
2023-03-17T01:43:50.068Z,29.80
2023-03-17T01:46:31.105Z,29.80
2023-03-17T01:49:12.894Z,29.80
2023-03-17T01:52:06.700Z,29.80
2023-03-17T01:54:56.520Z,29.80
2023-03-17T01:57:28.797Z,29.80
2023-03-17T02:00:06.060Z,29.80
2023-03-17T02:02:37.196Z,29.80
2023-03-17T02:05:06.915Z,29.90
2023-03-17T02:07:34.256Z,29.80
2023-03-17T02:10:03.186Z,29.80
2023-03-17T02:12:30.650Z,29.80
2023-03-17T02:14:59.681Z,29.80
2023-03-17T02:17:28.056Z,29.80
2023-03-17T02:19:56.256Z,29.80
2023-03-17T02:22:24.145Z,29.80
2023-03-17T02:24:58.518Z,29.80
2023-03-17T02:27:35.669Z,29.80
2023-03-17T02:30:04.720Z,29.90
2023-03-17T02:32:36.256Z,29.80
2023-03-17T02:35:04.040Z,29.80
2023-03-17T02:37:31.332Z,29.80
2023-03-17T02:39:58.539Z,29.80
2023-03-17T02:42:25.643Z,29.80
2023-03-17T02:44:52.748Z,29.80
2023-03-17T02:47:20.185Z,29.80
2023-03-17T02:49:47.589Z,29.90
2023-03-17T02:52:14.746Z,29.90
2023-03-17T02:54:41.954Z,29.80
2023-03-17T02:57:09.468Z,29.90
2023-03-17T02:59:36.954Z,29.90
2023-03-17T03:02:04.097Z,29.90
2023-03-17T03:04:31.646Z,29.80
2023-03-17T03:06:58.794Z,29.90
2023-03-17T03:09:25.991Z,29.80
2023-03-17T03:11:53.090Z,29.80
2023-03-17T03:14:20.232Z,29.80
2023-03-17T03:16:47.725Z,29.80
2023-03-17T03:19:14.813Z,29.80
2023-03-17T03:21:42.271Z,29.80
2023-03-17T03:24:09.569Z,29.80
2023-03-17T03:26:37.234Z,29.80
2023-03-17T03:29:05.509Z,29.80
2023-03-17T03:31:32.640Z,29.80
2023-03-17T03:33:59.704Z,29.80
2023-03-17T03:36:28.089Z,29.80
2023-03-17T03:38:55.173Z,29.80
2023-03-17T03:41:22.676Z,29.80
2023-03-17T03:43:49.844Z,29.80
2023-03-17T03:46:17.161Z,29.80
2023-03-17T03:48:44.243Z,29.80
2023-03-17T03:51:11.396Z,29.80
2023-03-17T03:53:38.520Z,29.80
2023-03-17T03:56:06.162Z,29.80
2023-03-17T03:58:33.259Z,29.80
2023-03-17T04:01:03.833Z,29.80
2023-03-17T04:03:30.926Z,29.80
2023-03-17T04:05:58.427Z,29.80
2023-03-17T04:08:25.936Z,29.70
2023-03-17T04:10:53.049Z,29.80
2023-03-17T04:13:20.106Z,29.80
2023-03-17T04:15:47.362Z,29.80
2023-03-17T04:18:14.518Z,29.70
2023-03-17T04:20:41.791Z,29.80
2023-03-17T04:23:08.971Z,29.80
2023-03-17T04:25:36.826Z,29.70
2023-03-17T04:28:04.075Z,29.80
2023-03-17T04:30:31.834Z,29.80
2023-03-17T04:32:59.256Z,29.80
2023-03-17T04:35:27.284Z,30.10
2023-03-17T04:37:54.383Z,29.80
2023-03-17T04:40:21.590Z,29.80
2023-03-17T04:42:48.729Z,29.70
2023-03-17T04:45:16.898Z,29.80
2023-03-17T04:47:46.347Z,29.80
2023-03-17T04:50:14.535Z,29.80
2023-03-17T04:52:42.316Z,30.00
2023-03-17T04:55:10.027Z,29.80
2023-03-17T04:57:37.249Z,29.80
2023-03-17T05:00:06.503Z,29.80
2023-03-17T05:02:33.567Z,29.80
2023-03-17T05:05:01.252Z,29.80
2023-03-17T05:07:28.376Z,29.80
2023-03-17T05:09:55.774Z,29.80
2023-03-17T05:12:22.971Z,29.80
2023-03-17T05:14:50.186Z,29.70
2023-03-17T05:17:17.296Z,29.70
2023-03-17T05:19:44.398Z,29.80
2023-03-17T05:22:11.751Z,29.70
2023-03-17T05:24:38.846Z,29.70
2023-03-17T05:27:06.178Z,29.70
2023-03-17T05:29:33.229Z,29.70
2023-03-17T05:32:00.328Z,29.60
2023-03-17T05:34:27.621Z,29.70
2023-03-17T05:36:54.740Z,29.60
2023-03-17T05:39:21.883Z,29.50
2023-03-17T05:41:50.528Z,29.30
2023-03-17T05:44:17.610Z,29.40
2023-03-17T05:46:44.760Z,29.40
2023-03-17T05:49:11.814Z,29.40
2023-03-17T05:51:38.965Z,29.40
2023-03-17T05:54:06.217Z,29.40
2023-03-17T05:56:33.949Z,29.40
2023-03-17T05:59:01.976Z,29.30
2023-03-17T06:01:29.806Z,29.30
2023-03-17T06:03:57.208Z,29.20
2023-03-17T06:06:24.782Z,29.20
2023-03-17T06:08:52.456Z,29.20
2023-03-17T06:11:21.635Z,29.20
2023-03-17T06:13:48.831Z,29.20
2023-03-17T06:16:16.204Z,29.10
2023-03-17T06:18:43.352Z,29.00
2023-03-17T06:21:10.688Z,29.00
2023-03-17T06:23:37.930Z,29.00
2023-03-17T06:26:05.978Z,28.90
2023-03-17T06:28:33.370Z,29.00
2023-03-17T06:31:01.039Z,29.00
2023-03-17T06:33:28.468Z,29.00
2023-03-17T06:35:56.393Z,28.80
2023-03-17T06:38:23.646Z,28.90
2023-03-17T06:40:50.902Z,29.00
2023-03-17T06:43:19.752Z,29.10
2023-03-17T06:45:47.115Z,29.10
2023-03-17T06:48:16.365Z,29.20
2023-03-17T06:50:43.553Z,29.20
2023-03-17T06:53:11.569Z,29.10
2023-03-17T06:59:30.878Z,29.00
2023-03-17T07:02:01.434Z,29.00
2023-03-17T07:04:28.740Z,29.30
2023-03-17T07:06:56.189Z,29.70
2023-03-17T07:09:24.028Z,29.70
2023-03-17T07:11:51.689Z,29.80
2023-03-17T07:14:19.207Z,30.00
2023-03-17T07:16:46.572Z,30.10
2023-03-17T07:19:13.817Z,30.00
2023-03-17T07:21:41.782Z,30.10
2023-03-17T07:24:10.063Z,30.10
2023-03-17T07:26:37.541Z,30.20
2023-03-17T07:29:04.775Z,30.10
2023-03-17T07:31:32.089Z,30.20
2023-03-17T07:34:00.168Z,30.30
2023-03-17T07:36:27.565Z,30.20
2023-03-17T07:38:55.627Z,30.30
2023-03-17T07:41:23.198Z,30.00
2023-03-17T07:43:50.707Z,30.20
2023-03-17T07:46:18.919Z,30.10
2023-03-17T07:48:46.359Z,30.20
2023-03-17T07:51:15.901Z,29.90
2023-03-17T07:53:43.437Z,29.90
2023-03-17T07:56:10.699Z,30.00
2023-03-17T07:58:37.828Z,30.00
2023-03-17T08:01:05.474Z,29.80
2023-03-17T08:03:32.690Z,29.90
2023-03-17T08:06:00.909Z,29.60
2023-03-17T08:08:28.992Z,29.60
2023-03-17T08:11:04.054Z,29.70
2023-03-17T08:13:32.829Z,29.60
2023-03-17T08:16:00.339Z,29.50
2023-03-17T08:18:27.590Z,29.50
2023-03-17T08:20:54.822Z,29.50
2023-03-17T08:23:22.690Z,29.30
2023-03-17T08:25:50.068Z,29.20
2023-03-17T08:28:17.266Z,29.20
2023-03-17T08:30:45.128Z,29.30
2023-03-17T08:33:12.865Z,29.10
2023-03-17T08:35:41.910Z,29.10
2023-03-17T08:38:09.931Z,29.00
2023-03-17T08:40:39.000Z,29.00
2023-03-17T08:43:07.876Z,29.00
2023-03-17T08:45:35.175Z,28.90
2023-03-17T08:48:03.396Z,28.90
2023-03-17T08:50:31.255Z,28.80
2023-03-17T08:52:59.557Z,28.60
2023-03-17T08:55:26.618Z,28.50
2023-03-17T08:57:53.977Z,28.30
2023-03-17T09:00:21.564Z,28.20
2023-03-17T09:02:49.428Z,28.10
2023-03-17T09:05:18.561Z,27.90
2023-03-17T09:07:45.734Z,27.90
2023-03-17T09:10:14.964Z,27.70
2023-03-17T09:12:43.016Z,27.80
2023-03-17T09:15:12.472Z,27.70
2023-03-17T09:17:39.678Z,27.60
2023-03-17T09:20:07.309Z,27.50
2023-03-17T09:22:34.413Z,27.50
2023-03-17T09:25:01.666Z,27.50
2023-03-17T09:27:28.976Z,27.30
2023-03-17T09:29:56.535Z,27.20
2023-03-17T09:32:23.606Z,27.20
2023-03-17T09:34:51.743Z,27.10
2023-03-17T09:37:18.896Z,27.20
2023-03-17T09:39:46.487Z,27.20
2023-03-17T09:42:42.365Z,27.10
2023-03-17T09:45:26.125Z,27.10
2023-03-17T09:48:14.647Z,27.20
2023-03-17T09:50:59.206Z,27.10
2023-03-17T09:53:54.360Z,27.10
2023-03-17T09:56:22.372Z,27.00
2023-03-17T09:58:54.561Z,26.90
2023-03-17T10:01:23.251Z,26.90
2023-03-17T10:03:51.721Z,27.00
2023-03-17T10:06:33.897Z,27.00
2023-03-17T10:09:11.025Z,27.00
2023-03-17T10:11:46.127Z,27.00
2023-03-17T10:14:43.307Z,26.90
2023-03-17T10:17:18.906Z,26.80
2023-03-17T10:20:04.828Z,27.20
2023-03-17T10:22:49.004Z,26.70
2023-03-17T10:25:20.644Z,26.80
2023-03-17T10:27:56.532Z,26.70
2023-03-17T10:30:23.992Z,26.70
2023-03-17T10:32:54.779Z,26.60
2023-03-17T10:35:24.738Z,26.50
2023-03-17T10:38:04.339Z,26.40
2023-03-17T10:40:39.200Z,26.30
2023-03-17T10:43:09.047Z,26.40
2023-03-17T10:45:43.991Z,26.60
2023-03-17T10:48:19.230Z,26.60
2023-03-17T10:50:49.273Z,27.00
2023-03-17T10:53:28.538Z,26.60
2023-03-17T10:56:06.943Z,26.40
2023-03-17T10:58:39.281Z,26.50
2023-03-17T11:01:20.643Z,26.40
2023-03-17T11:03:50.212Z,26.40
2023-03-17T11:06:20.420Z,26.30
2023-03-17T11:08:53.893Z,26.30
2023-03-17T11:11:30.080Z,26.30
2023-03-17T11:14:13.594Z,26.30
2023-03-17T11:16:54.009Z,26.30
2023-03-17T11:19:31.928Z,26.20
2023-03-17T11:22:16.018Z,26.20
2023-03-17T11:25:09.639Z,26.20
2023-03-17T11:27:49.138Z,26.20
2023-03-17T11:30:38.364Z,26.10
2023-03-17T11:33:31.260Z,26.30
2023-03-17T11:36:14.231Z,26.30
2023-03-17T11:38:59.404Z,26.30
2023-03-17T11:41:59.360Z,26.30
2023-03-17T11:44:47.660Z,26.30
2023-03-17T11:47:42.035Z,26.20
2023-03-17T11:50:40.221Z,26.30
2023-03-17T11:53:31.706Z,26.40
2023-03-17T11:56:11.691Z,26.10
2023-03-17T11:58:44.187Z,26.00
2023-03-17T12:01:22.050Z,26.10
2023-03-17T12:04:30.723Z,26.00
2023-03-17T12:07:18.211Z,25.90
2023-03-17T12:09:51.012Z,25.90
2023-03-17T12:12:24.559Z,26.00
2023-03-17T12:14:54.127Z,26.10
2023-03-17T12:17:41.566Z,26.10
2023-03-17T12:20:18.749Z,26.30
2023-03-17T12:23:05.829Z,26.30
2023-03-17T12:25:41.203Z,26.30
2023-03-17T12:28:19.853Z,26.40
2023-03-17T12:30:54.677Z,26.40
2023-03-17T12:33:45.403Z,26.40
2023-03-17T12:36:17.087Z,26.40
2023-03-17T12:39:02.111Z,26.20
2023-03-17T12:42:06.615Z,26.10
2023-03-17T12:44:53.825Z,26.10
2023-03-17T12:47:42.091Z,26.30
2023-03-17T12:50:40.376Z,26.30
2023-03-17T12:53:32.591Z,26.20
2023-03-17T12:56:16.618Z,25.70
2023-03-17T12:58:47.488Z,26.10
2023-03-17T13:01:32.331Z,26.10
2023-03-17T13:04:14.840Z,26.20
2023-03-17T13:07:02.637Z,26.10
2023-03-17T13:09:48.971Z,25.80
2023-03-17T13:12:55.967Z,25.60
2023-03-17T13:15:49.065Z,25.50
2023-03-17T13:18:44.004Z,25.50
2023-03-17T13:21:14.933Z,25.40
2023-03-17T13:23:58.267Z,25.30
2023-03-17T13:26:56.568Z,25.20
2023-03-17T13:29:44.788Z,25.10
2023-03-17T13:32:33.616Z,25.10
2023-03-17T13:35:19.075Z,25.10
2023-03-17T13:38:10.505Z,25.20
2023-03-17T13:41:09.380Z,25.30
2023-03-17T13:44:16.121Z,25.50
2023-03-17T13:46:48.444Z,25.50
2023-03-17T13:49:32.337Z,25.50
2023-03-17T13:52:15.755Z,25.90
2023-03-17T13:54:59.807Z,26.20
2023-03-17T13:57:30.772Z,29.30
2023-03-17T14:00:17.884Z,30.70
2023-03-17T14:02:46.133Z,32.20
2023-03-17T14:05:30.228Z,32.00
2023-03-17T14:08:03.912Z,31.10
2023-03-17T14:10:33.379Z,29.90
2023-03-17T14:13:16.692Z,29.00
2023-03-17T14:16:06.602Z,28.30
2023-03-17T14:18:38.172Z,27.80
2023-03-17T14:21:11.723Z,27.50
2023-03-17T14:23:39.077Z,27.20
2023-03-17T14:26:10.909Z,26.90
2023-03-17T14:28:38.146Z,26.70
2023-03-17T14:31:07.664Z,26.50
2023-03-17T14:33:39.872Z,26.30
2023-03-17T14:36:10.808Z,26.10
2023-03-17T14:38:46.495Z,26.00
2023-03-17T14:41:22.842Z,25.90
2023-03-17T14:43:52.420Z,25.80
2023-03-17T14:46:25.896Z,25.70
2023-03-17T14:49:17.870Z,25.60
2023-03-17T14:51:45.802Z,25.50
2023-03-17T14:54:23.633Z,25.50
2023-03-17T14:57:02.408Z,25.60
2023-03-17T14:59:39.084Z,25.60
2023-03-17T15:02:34.587Z,25.60
2023-03-17T15:05:38.759Z,25.90
2023-03-17T15:08:30.862Z,26.10
2023-03-17T15:11:00.005Z,26.20
2023-03-17T15:13:28.579Z,26.40
2023-03-17T15:15:56.393Z,26.40
2023-03-17T15:18:24.996Z,26.40
2023-03-17T15:20:52.135Z,26.50
2023-03-17T15:23:22.387Z,26.50
2023-03-17T15:25:51.492Z,26.50
2023-03-17T15:28:20.840Z,26.50
2023-03-17T15:30:51.174Z,26.60
2023-03-17T15:33:37.265Z,26.60
2023-03-17T15:36:05.502Z,26.60
2023-03-17T15:38:33.454Z,26.70
2023-03-17T15:41:00.812Z,26.70
2023-03-17T15:43:27.917Z,26.80
2023-03-17T15:46:00.252Z,26.70
2023-03-17T15:48:30.042Z,26.80
2023-03-17T15:51:00.253Z,26.80
2023-03-17T15:53:27.322Z,26.80
2023-03-17T15:55:54.708Z,26.80
2023-03-17T15:58:22.205Z,26.80
2023-03-17T16:00:53.860Z,26.90
2023-03-17T16:03:33.549Z,26.90
2023-03-17T16:06:02.933Z,26.90
2023-03-17T16:08:30.360Z,26.90
2023-03-17T16:10:57.409Z,27.00
2023-03-17T16:13:24.514Z,27.00
2023-03-17T16:15:57.830Z,27.00
2023-03-17T16:18:35.062Z,27.00
2023-03-17T16:21:04.384Z,27.10
2023-03-17T16:23:34.824Z,27.10
2023-03-17T16:26:14.321Z,27.10
2023-03-17T16:28:44.678Z,27.10
2023-03-17T16:31:23.331Z,27.20
2023-03-17T16:33:51.423Z,27.20
2023-03-17T16:36:20.793Z,27.20
2023-03-17T16:38:48.161Z,27.30
2023-03-17T16:41:22.159Z,27.30
2023-03-17T16:43:53.754Z,27.40
2023-03-17T16:46:22.046Z,27.40
2023-03-17T16:48:50.793Z,27.50
2023-03-17T16:51:18.542Z,27.50
2023-03-17T16:53:46.833Z,27.50
2023-03-17T16:56:17.476Z,27.50
2023-03-17T16:58:45.087Z,27.60
2023-03-17T17:01:19.559Z,27.60
2023-03-17T17:03:46.907Z,27.70
2023-03-17T17:06:14.783Z,27.70
2023-03-17T17:08:43.812Z,27.70
2023-03-17T17:11:13.151Z,27.70
2023-03-17T17:13:45.674Z,27.70
2023-03-17T17:16:25.589Z,27.80
2023-03-17T17:18:52.738Z,27.80
2023-03-17T17:21:20.015Z,27.80
2023-03-17T17:23:47.474Z,27.80
2023-03-17T17:26:14.903Z,27.90
2023-03-17T17:28:42.187Z,27.90
2023-03-17T17:31:09.524Z,27.90
2023-03-17T17:33:38.131Z,28.00
2023-03-17T17:36:11.605Z,28.00
2023-03-17T17:38:38.755Z,28.00
2023-03-17T17:41:07.053Z,28.10
2023-03-17T17:43:34.240Z,28.10
2023-03-17T17:46:01.838Z,28.10
2023-03-17T17:48:31.937Z,28.10
2023-03-17T17:50:59.115Z,28.10
2023-03-17T17:53:26.301Z,28.20
2023-03-17T17:55:53.508Z,28.20
2023-03-17T17:58:24.288Z,28.30
2023-03-17T18:00:54.054Z,28.40
2023-03-17T18:03:25.301Z,28.30
2023-03-17T18:05:55.129Z,28.30
2023-03-17T18:08:23.817Z,28.30
2023-03-17T18:10:52.259Z,28.30
2023-03-17T18:13:19.726Z,28.30
2023-03-17T18:15:47.065Z,28.40
2023-03-17T18:18:14.176Z,28.40
2023-03-17T18:20:41.619Z,28.40
2023-03-17T18:23:08.819Z,28.50
2023-03-17T18:25:37.397Z,28.40
2023-03-17T18:28:04.901Z,28.50
2023-03-17T18:30:35.138Z,28.50
2023-03-17T18:33:10.819Z,28.50
2023-03-17T18:35:38.260Z,28.60
2023-03-17T18:38:05.866Z,28.60
2023-03-17T18:40:33.917Z,28.60
2023-03-17T18:43:01.681Z,28.60
2023-03-17T18:45:29.102Z,28.60
2023-03-17T18:47:56.252Z,28.70
2023-03-17T18:50:23.480Z,28.70
2023-03-17T18:52:50.854Z,28.70
2023-03-17T18:55:18.080Z,28.70
2023-03-17T18:57:46.571Z,28.70
2023-03-17T19:00:16.513Z,28.60
2023-03-17T19:02:43.840Z,28.60
2023-03-17T19:05:11.840Z,28.60
2023-03-17T19:07:40.470Z,28.60
2023-03-17T19:10:08.902Z,28.70
2023-03-17T19:12:38.888Z,28.70
2023-03-17T19:15:07.578Z,28.70
2023-03-17T19:17:35.637Z,28.70
2023-03-17T19:20:02.794Z,28.70
2023-03-17T19:22:29.843Z,28.80
2023-03-17T19:24:57.077Z,28.80
2023-03-17T19:27:24.224Z,28.80
2023-03-17T19:29:51.318Z,28.80
2023-03-17T19:32:18.565Z,28.90
2023-03-17T19:34:47.805Z,28.90
2023-03-17T19:37:15.817Z,28.90
2023-03-17T19:39:45.062Z,28.90
2023-03-17T19:42:13.425Z,28.90
2023-03-17T19:44:40.747Z,28.90
2023-03-17T19:47:08.511Z,28.90
2023-03-17T19:49:37.567Z,28.90
2023-03-17T19:52:06.612Z,29.00
2023-03-17T19:54:34.400Z,28.90
2023-03-17T19:57:01.596Z,29.00
2023-03-17T19:59:28.719Z,29.00
2023-03-17T20:01:56.229Z,29.00
2023-03-17T20:04:23.492Z,29.00
2023-03-17T20:06:55.826Z,29.00
2023-03-17T20:09:26.260Z,29.00
2023-03-17T20:11:53.850Z,29.00
2023-03-17T20:14:21.143Z,29.00
2023-03-17T20:16:48.502Z,29.10
2023-03-17T20:19:16.468Z,29.00
2023-03-17T20:21:43.944Z,29.00
2023-03-17T20:24:14.824Z,29.10
2023-03-17T20:26:43.593Z,29.10
2023-03-17T20:29:16.234Z,29.10
2023-03-17T20:31:43.976Z,29.10
2023-03-17T20:34:11.828Z,29.10
2023-03-17T20:36:42.482Z,29.10
2023-03-17T20:39:13.867Z,29.10
2023-03-17T20:41:41.789Z,29.20
2023-03-17T20:44:08.958Z,29.10
2023-03-17T20:46:36.162Z,29.10
2023-03-17T20:49:04.244Z,29.20
2023-03-17T20:51:32.454Z,29.20
2023-03-17T20:54:00.872Z,29.20
2023-03-17T20:56:29.993Z,29.20
2023-03-17T20:58:58.639Z,29.40
2023-03-17T21:01:26.844Z,29.20
2023-03-17T21:03:54.028Z,29.20
2023-03-17T21:06:22.124Z,29.20
2023-03-17T21:08:50.900Z,29.20
2023-03-17T21:11:19.721Z,29.20
2023-03-17T21:13:47.233Z,29.20
2023-03-17T21:16:20.219Z,29.30
2023-03-17T21:18:48.199Z,29.20
2023-03-17T21:21:16.674Z,29.20
2023-03-17T21:23:44.090Z,29.20
2023-03-17T21:26:12.200Z,29.30
2023-03-17T21:28:41.469Z,29.30
2023-03-17T21:31:10.316Z,29.30
2023-03-17T21:33:37.656Z,29.30
2023-03-17T21:36:05.933Z,29.30
2023-03-17T21:38:33.088Z,29.30
2023-03-17T21:41:22.986Z,29.30
2023-03-17T21:43:50.670Z,29.30
2023-03-17T21:46:17.986Z,29.30
2023-03-17T21:48:45.204Z,29.30
2023-03-17T21:51:13.069Z,29.30
2023-03-17T21:53:40.207Z,29.30
2023-03-17T21:56:08.913Z,29.40
2023-03-17T21:58:36.647Z,29.30
2023-03-17T22:01:04.479Z,29.30
2023-03-17T22:03:32.480Z,29.40
2023-03-17T22:05:59.707Z,29.30
2023-03-17T22:08:26.865Z,29.40
2023-03-17T22:10:54.046Z,29.40
2023-03-17T22:13:21.452Z,29.40
2023-03-17T22:15:48.800Z,29.40
2023-03-17T22:18:16.032Z,29.40
2023-03-17T22:20:44.956Z,29.40
2023-03-17T22:23:12.033Z,29.40
2023-03-17T22:25:39.162Z,29.40
2023-03-17T22:28:06.608Z,29.40
2023-03-17T22:30:34.063Z,29.50
2023-03-17T22:33:01.395Z,29.40
2023-03-17T22:35:28.490Z,29.40
2023-03-17T22:37:56.603Z,29.40
2023-03-17T22:40:23.682Z,29.40
2023-03-17T22:42:51.999Z,29.50
2023-03-17T22:45:19.089Z,29.50
2023-03-17T22:47:46.275Z,29.50
2023-03-17T22:50:13.353Z,29.50
2023-03-17T22:52:40.676Z,29.50
2023-03-17T22:55:08.356Z,29.50
2023-03-17T22:57:36.360Z,29.50
2023-03-17T23:00:13.933Z,29.50
2023-03-17T23:02:41.399Z,29.50
2023-03-17T23:05:09.864Z,29.50
2023-03-17T23:07:49.659Z,29.60
2023-03-17T23:10:22.208Z,29.60
2023-03-17T23:12:50.827Z,29.60
2023-03-17T23:15:19.064Z,29.50
2023-03-17T23:17:47.204Z,29.60
2023-03-17T23:20:15.205Z,29.50
2023-03-17T23:22:42.445Z,29.60
2023-03-17T23:25:10.205Z,29.50
2023-03-17T23:27:37.359Z,29.60
2023-03-17T23:30:06.049Z,29.50
2023-03-17T23:32:34.347Z,29.50
2023-03-17T23:35:01.520Z,29.50
2023-03-17T23:37:29.038Z,29.60
2023-03-17T23:39:56.340Z,29.60
2023-03-17T23:42:23.436Z,29.60
2023-03-17T23:44:50.609Z,29.60
2023-03-17T23:47:18.344Z,29.60
2023-03-17T23:49:45.389Z,29.60
2023-03-17T23:52:12.661Z,29.60
2023-03-17T23:54:39.919Z,29.60
2023-03-17T23:57:07.866Z,29.60
2023-03-17T23:59:35.215Z,29.60
